Nearby METAR Reports

 

EBAW - Antwerpen, Belgium
Distance from station: NW 22km
Updated: 2020-12-03 04:50
Overcast
Overcast
 Wind from SW
Wind: SW 15 km/h
Temperature: 6°C
Wind Chill: 3°C
Dew Point: 5°C
Humidity: 93%
Barometer: 1005 hPa
Clouds: Overcast
Visibility: 10 km
Cloud details: Overcast 213 m
2020/12/03 03:50 EBAW 030350Z AUTO 22008KT 9999 // OVC007/// 06/05 Q1005
EBBR - Brussel, Belgium
Distance from station: SW 24km
Updated: 2020-12-03 05:20
Light rain, Mostly cloudy
Light rain, Mostly cloudy
 Wind from SW
Wind: SW 17 km/h
Temperature: 6°C
Wind Chill: 3°C
Dew Point: 4°C
Humidity: 87%
Barometer: 1004 hPa
Summary: Light rain
Clouds: Mostly cloudy
Visibility: 10 km
Cloud details: Mostly cloudy 396 m
2020/12/03 04:20 EBBR 030420Z 22009KT 9999 -RA BKN013 06/04 Q1004 TEMPO BKN016
 
EBDT - Schaffen, Belgium
Distance from station: ESE 26km
Updated: 2020-12-03 04:55
Overcast
Overcast
 Wind from S
Wind: S 13 km/h
Temperature: 6°C
Wind Chill: 3°C
Dew Point: 4°C
Humidity: 87%
Barometer: 1005 hPa
Clouds: Overcast
Visibility: 10 km
Cloud details: Few Clouds 488 m
Partly cloudy 610 m
Overcast 884 m
2020/12/03 03:55 EBDT 030355Z AUTO 19007KT 9999 FEW016/// SCT020/// OVC029/// 06/04 Q1005 WHT
EBBE - Beauvechain, Belgium
Distance from station: S 36km
Updated: 2020-12-03 04:55

 Wind from SSW
Wind: SSW 20 km/h
2020/12/03 03:55 EBBE 030355Z AUTO 21011KT //// /// ///// Q////
 
EHWO - Woensdrecht Rnla, Netherlands
Distance from station: NNW 50km
Updated: 2020-12-03 05:19
Mist, Overcast
Mist, Overcast
 Wind from SW
Wind: SW 13 km/h
Temperature: 6°C
Wind Chill: 3°C
Dew Point: 5°C
Humidity: 93%
Barometer: 1004 hPa
Summary: Mist
Clouds: Overcast
Visibility: 9 km
Cloud details: Partly cloudy 122 m
Overcast 183 m
2020/12/03 04:19 EHWO 030419Z AUTO 22007KT 190V250 9000 BR SCT004 OVC006 06/05 Q1004 YLO
EBBL - Kleine-Brogel, Belgium
Distance from station: ENE 54km
Updated: 2020-12-03 05:17
Overcast
Overcast
 Wind from SSW
Wind: SSW 7 km/h
Temperature: 5°C
Wind Chill: 3°C
Dew Point: 4°C
Humidity: 93%
Barometer: 1005 hPa
Clouds: Overcast
Visibility: 10 km
Cloud details: Mostly cloudy 335 m
Overcast 792 m
2020/12/03 04:17 EBBL 030417Z AUTO 20004KT 9999 BKN011/// OVC026/// 05/04 Q1005 GRN
 
EHGR - Gilze-Rijen Rnla, Netherlands
Distance from station: NNE 57km
Updated: 2020-12-03 04:55
Mist, Overcast
Mist, Overcast
 Wind from SSW
Wind: SSW 11 km/h
Temperature: 6°C
Wind Chill: 4°C
Dew Point: 5°C
Humidity: 93%
Barometer: 1004 hPa
Summary: Mist
Clouds: Overcast
Visibility: 9 km
Cloud details: Mostly cloudy 152 m
Overcast 183 m
2020/12/03 03:55 EHGR 030355Z AUTO 21006KT 160V250 9000 BR BKN005 OVC006 06/05 Q1004 YLO
EHEH - Eindhoven Rnlafb, Netherlands
Distance from station: NE 63km
Updated: 2020-12-03 04:59
Mist, Mostly cloudy
Mist, Mostly cloudy
 Wind from SSW
Wind: SSW 17 km/h
Temperature: 6°C
Wind Chill: 3°C
Dew Point: 5°C
Humidity: 93%
Barometer: 1005 hPa
Summary: Mist
Clouds: Mostly cloudy
Visibility: 3 km
Cloud details: Few Clouds 183 m
Partly cloudy 213 m
Mostly cloudy 244 m
2020/12/03 03:59 EHEH 030359Z AUTO 20009KT 3400 BR FEW006 SCT007 BKN008 06/05 Q1005 YLO
 
EBCI - Charleroi, Belgium
Distance from station: SSW 70km
Updated: 2020-12-03 05:20
Overcast
Overcast
 Wind from SW
Wind: SW 19 km/h
Temperature: 5°C
Wind Chill: 1°C
Dew Point: 3°C
Humidity: 87%
Barometer: 1005 hPa
Clouds: Overcast
Visibility: 10 km
Cloud details: Mostly cloudy 305 m
Overcast 366 m
2020/12/03 04:20 EBCI 030420Z 22010KT 9999 BKN010 OVC012 05/03 Q1005 NOSIG
EBLG - Bierset, Belgium
Distance from station: SE 72km
Updated: 2020-12-03 05:20
Mostly cloudy
Mostly cloudy
 Wind from SSW
Wind: SSW 17 km/h
Temperature: 5°C
Wind Chill: 2°C
Dew Point: 3°C
Humidity: 87%
Barometer: 1005 hPa
Clouds: Mostly cloudy
Visibility: 10 km
Cloud details: Mostly cloudy 274 m
Mostly cloudy 1067 m
2020/12/03 04:20 EBLG 030420Z 20009KT 9999 BKN009 BKN035 05/03 Q1005 NOSIG
Benelux Weer Netwerk cwop awekas hwa wcloud pwsweather wow wow